createdAt,value
2022-09-18T00:00:19.343Z,8.80
2022-09-18T00:02:49.175Z,8.90
2022-09-18T00:05:18.603Z,8.80
2022-09-18T00:07:47.343Z,8.70
2022-09-18T00:10:22.909Z,8.60
2022-09-18T00:12:53.220Z,8.60
2022-09-18T00:15:22.764Z,8.60
2022-09-18T00:17:53.015Z,8.60
2022-09-18T00:20:25.613Z,8.60
2022-09-18T00:22:55.878Z,8.70
2022-09-18T00:25:23.359Z,8.70
2022-09-18T00:27:51.703Z,8.80
2022-09-18T00:30:23.219Z,8.80
2022-09-18T00:32:55.384Z,8.70
2022-09-18T00:35:25.623Z,8.70
2022-09-18T00:37:52.783Z,8.80
2022-09-18T00:40:22.065Z,8.80
2022-09-18T00:42:50.394Z,8.80
2022-09-18T00:45:18.738Z,8.90
2022-09-18T00:47:50.535Z,8.90
2022-09-18T00:50:31.054Z,8.40
2022-09-18T00:53:12.395Z,8.20
2022-09-18T00:55:51.729Z,8.00
2022-09-18T00:58:21.184Z,8.00
2022-09-18T01:00:48.245Z,8.00
2022-09-18T01:03:24.123Z,8.10
2022-09-18T01:06:08.443Z,8.00
2022-09-18T01:09:06.183Z,8.10
2022-09-18T01:12:10.645Z,8.10
2022-09-18T01:15:05.206Z,7.90
2022-09-18T01:17:48.253Z,7.80
2022-09-18T01:20:48.893Z,7.80
2022-09-18T01:23:43.274Z,7.80
2022-09-18T01:26:53.054Z,7.90
2022-09-18T01:29:47.077Z,7.90
2022-09-18T01:32:47.248Z,7.90
2022-09-18T01:35:39.623Z,8.00
2022-09-18T01:38:33.954Z,7.90
2022-09-18T01:41:14.843Z,8.00
2022-09-18T01:43:44.473Z,8.00
2022-09-18T01:46:15.608Z,7.90
2022-09-18T01:48:48.144Z,7.80
2022-09-18T01:51:30.378Z,7.80
2022-09-18T01:54:15.838Z,7.80
2022-09-18T01:56:56.778Z,7.80
2022-09-18T01:59:32.441Z,7.80
2022-09-18T02:02:03.632Z,7.70
2022-09-18T02:04:38.265Z,7.80
2022-09-18T02:07:14.658Z,7.80
2022-09-18T02:09:43.124Z,7.90
2022-09-18T02:12:15.978Z,7.80
2022-09-18T02:14:47.444Z,7.40
2022-09-18T02:17:25.643Z,7.10
2022-09-18T02:20:03.852Z,7.00
2022-09-18T02:22:34.379Z,7.10
2022-09-18T02:25:06.503Z,7.10
2022-09-18T02:27:37.297Z,7.00
2022-09-18T02:30:06.789Z,6.80
2022-09-18T02:32:45.844Z,6.80
2022-09-18T02:35:13.923Z,6.80
2022-09-18T02:37:48.278Z,6.80
2022-09-18T02:40:41.139Z,6.90
2022-09-18T02:43:26.849Z,6.80
2022-09-18T02:46:20.670Z,6.70
2022-09-18T02:48:55.008Z,6.60
2022-09-18T02:51:36.263Z,6.50
2022-09-18T02:54:08.445Z,6.50
2022-09-18T02:56:50.638Z,6.60
2022-09-18T02:59:29.658Z,6.70
2022-09-18T03:01:58.946Z,6.80
2022-09-18T03:04:28.054Z,6.90
2022-09-18T03:06:56.513Z,6.90
2022-09-18T03:09:25.963Z,7.00
2022-09-18T03:11:54.206Z,7.10
2022-09-18T03:14:21.234Z,7.10
2022-09-18T03:16:48.273Z,7.00
2022-09-18T03:19:15.633Z,6.50
2022-09-18T03:21:42.633Z,6.30
2022-09-18T03:24:09.698Z,6.40
2022-09-18T03:26:36.754Z,6.40
2022-09-18T03:29:08.862Z,6.30
2022-09-18T03:31:36.081Z,6.10
2022-09-18T03:34:04.343Z,5.90
2022-09-18T03:36:31.638Z,5.70
2022-09-18T03:38:59.023Z,5.60
2022-09-18T03:41:26.098Z,5.60
2022-09-18T03:43:53.434Z,5.70
2022-09-18T03:46:23.800Z,5.90
2022-09-18T03:48:51.593Z,6.00
2022-09-18T03:51:19.950Z,6.10
2022-09-18T03:53:48.063Z,6.60
2022-09-18T03:56:15.993Z,6.80
2022-09-18T03:58:43.285Z,7.00
2022-09-18T04:01:11.394Z,7.20
2022-09-18T04:03:38.420Z,7.30
2022-09-18T04:06:05.663Z,7.40
2022-09-18T04:08:32.684Z,7.50
2022-09-18T04:11:00.210Z,7.50
2022-09-18T04:13:27.828Z,7.50
2022-09-18T04:15:54.968Z,7.50
2022-09-18T04:18:22.000Z,7.40
2022-09-18T04:20:49.078Z,7.30
2022-09-18T04:23:16.163Z,7.30
2022-09-18T04:25:43.733Z,7.40
2022-09-18T04:28:11.538Z,7.40
2022-09-18T04:30:38.660Z,7.10
2022-09-18T04:33:05.813Z,6.80
2022-09-18T04:35:32.989Z,6.60
2022-09-18T04:38:00.010Z,6.50
2022-09-18T04:40:27.131Z,6.50
2022-09-18T04:42:57.396Z,6.60
2022-09-18T04:45:24.500Z,6.90
2022-09-18T04:47:51.523Z,7.10
2022-09-18T04:50:18.554Z,7.20
2022-09-18T04:52:45.608Z,7.30
2022-09-18T04:55:12.699Z,7.40
2022-09-18T04:57:39.709Z,7.30
2022-09-18T05:00:07.753Z,7.30
2022-09-18T05:02:34.823Z,7.50
2022-09-18T05:05:01.849Z,7.80
2022-09-18T05:07:30.759Z,8.30
2022-09-18T05:09:57.764Z,8.90
2022-09-18T05:12:24.815Z,9.40
2022-09-18T05:14:51.824Z,9.70
2022-09-18T05:17:18.933Z,10.30
2022-09-18T05:19:46.065Z,10.60
2022-09-18T05:22:13.140Z,10.80
2022-09-18T05:24:40.293Z,10.70
2022-09-18T05:27:08.328Z,10.40
2022-09-18T05:29:36.003Z,10.10
2022-09-18T05:32:03.448Z,10.00
2022-09-18T05:34:47.693Z,9.80
2022-09-18T05:37:14.693Z,9.80
2022-09-18T05:39:42.262Z,9.90
2022-09-18T05:42:10.078Z,10.20
2022-09-18T05:44:37.169Z,10.60
2022-09-18T05:47:04.298Z,11.00
2022-09-18T05:49:31.354Z,10.90
2022-09-18T05:51:58.990Z,10.40
2022-09-18T05:54:25.993Z,10.50
2022-09-18T05:56:54.238Z,10.50
2022-09-18T05:59:27.358Z,10.50
2022-09-18T06:02:00.557Z,10.40
2022-09-18T06:04:27.594Z,10.30
2022-09-18T06:06:54.848Z,10.40
2022-09-18T06:09:22.294Z,10.30
2022-09-18T06:11:49.434Z,10.10
2022-09-18T06:14:17.080Z,10.00
2022-09-18T06:16:44.200Z,10.00
2022-09-18T06:19:11.313Z,10.00
2022-09-18T06:21:38.338Z,10.30
2022-09-18T06:24:05.442Z,10.70
2022-09-18T06:26:32.749Z,10.70
2022-09-18T06:28:59.753Z,10.60
2022-09-18T06:31:26.829Z,10.40
2022-09-18T06:33:54.063Z,10.40
2022-09-18T06:36:21.103Z,10.70
2022-09-18T06:38:50.768Z,11.00
2022-09-18T06:41:17.848Z,11.00
2022-09-18T06:43:48.590Z,11.10
2022-09-18T06:46:15.645Z,11.20
2022-09-18T06:48:42.679Z,11.30
2022-09-18T06:51:10.033Z,11.70
2022-09-18T06:53:37.084Z,12.00
2022-09-18T06:56:04.212Z,12.40
2022-09-18T06:58:32.018Z,12.80
2022-09-18T07:01:02.779Z,13.00
2022-09-18T07:03:29.939Z,13.40
2022-09-18T07:05:56.984Z,13.50
2022-09-18T07:08:24.133Z,13.60
2022-09-18T07:10:51.239Z,13.80
2022-09-18T07:13:18.433Z,13.90
2022-09-18T07:15:48.847Z,13.80
2022-09-18T07:18:15.946Z,13.60
2022-09-18T07:20:42.930Z,13.60
2022-09-18T07:23:10.033Z,13.40
2022-09-18T07:25:37.499Z,13.40
2022-09-18T07:28:09.058Z,13.50
2022-09-18T07:30:40.274Z,13.80
2022-09-18T07:33:09.104Z,14.40
2022-09-18T07:35:36.497Z,14.60
2022-09-18T07:38:09.394Z,14.90
2022-09-18T07:40:36.698Z,14.90
2022-09-18T07:43:08.959Z,14.60
2022-09-18T07:45:36.650Z,14.30
2022-09-18T07:48:06.083Z,14.20
2022-09-18T07:50:33.683Z,14.30
2022-09-18T07:53:05.658Z,14.60
2022-09-18T07:55:37.231Z,14.60
2022-09-18T07:58:06.298Z,15.40
2022-09-18T08:00:36.222Z,16.30
2022-09-18T08:03:04.441Z,16.20
2022-09-18T08:05:31.843Z,16.50
2022-09-18T08:08:06.998Z,17.10
2022-09-18T08:10:35.038Z,17.80
2022-09-18T08:13:03.168Z,18.10
2022-09-18T08:15:40.676Z,18.10
2022-09-18T08:18:09.400Z,17.80
2022-09-18T08:20:36.504Z,17.20
2022-09-18T08:23:06.440Z,16.90
2022-09-18T08:25:34.328Z,16.60
2022-09-18T08:28:02.921Z,16.20
2022-09-18T08:30:30.452Z,15.90
2022-09-18T08:33:08.430Z,15.70
2022-09-18T08:35:35.537Z,15.20
2022-09-18T08:38:02.630Z,14.30
2022-09-18T08:40:39.070Z,13.90
2022-09-18T08:43:31.418Z,14.00
2022-09-18T08:46:11.642Z,14.40
2022-09-18T08:49:02.337Z,14.80
2022-09-18T08:51:35.007Z,15.30
2022-09-18T08:54:17.394Z,16.00
2022-09-18T08:56:45.088Z,16.50
2022-09-18T08:59:16.864Z,16.60
2022-09-18T09:02:25.261Z,17.10
2022-09-18T09:04:58.019Z,17.30
2022-09-18T09:07:25.033Z,17.40
2022-09-18T09:10:13.554Z,17.30
2022-09-18T09:13:05.102Z,17.20
2022-09-18T09:15:47.145Z,17.30
2022-09-18T09:18:19.358Z,17.90
2022-09-18T09:20:51.963Z,18.10
2022-09-18T09:23:25.123Z,18.50
2022-09-18T09:26:07.104Z,18.80
2022-09-18T09:28:54.219Z,19.00
2022-09-18T09:31:26.494Z,19.10
2022-09-18T09:34:22.292Z,19.20
2022-09-18T09:36:53.443Z,19.40
2022-09-18T09:39:43.660Z,19.70
2022-09-18T09:42:29.621Z,19.90
2022-09-18T09:45:14.835Z,19.80
2022-09-18T09:47:54.283Z,19.80
2022-09-18T09:50:51.590Z,19.80
2022-09-18T09:53:19.988Z,19.90
2022-09-18T09:56:06.539Z,20.10
2022-09-18T09:59:08.160Z,20.10
2022-09-18T10:01:46.109Z,19.90
2022-09-18T10:04:13.133Z,19.80
2022-09-18T10:07:05.828Z,19.60
2022-09-18T10:09:40.707Z,19.60
2022-09-18T10:12:49.306Z,19.40
2022-09-18T10:15:16.342Z,19.40
2022-09-18T10:17:45.478Z,19.30
2022-09-18T10:20:18.573Z,19.20
2022-09-18T10:22:48.068Z,19.20
2022-09-18T10:25:26.163Z,19.20
2022-09-18T10:27:53.163Z,19.20
2022-09-18T10:30:20.303Z,19.00
2022-09-18T10:32:47.524Z,19.00
2022-09-18T10:35:27.153Z,18.90
2022-09-18T10:37:54.298Z,18.90
2022-09-18T10:40:40.380Z,18.80
2022-09-18T10:43:16.091Z,18.90
2022-09-18T10:45:43.283Z,19.10
2022-09-18T10:48:21.138Z,19.00
2022-09-18T10:51:02.438Z,18.60
2022-09-18T10:53:34.962Z,18.30
2022-09-18T10:56:15.243Z,18.60
2022-09-18T10:58:43.115Z,18.60
2022-09-18T11:01:11.319Z,18.60
2022-09-18T11:03:47.663Z,18.80
2022-09-18T11:06:24.075Z,19.10
2022-09-18T11:08:53.939Z,19.10
2022-09-18T11:11:36.178Z,19.20
2022-09-18T11:14:16.254Z,19.30
2022-09-18T11:16:46.424Z,19.40
2022-09-18T11:19:40.843Z,19.40
2022-09-18T11:22:30.498Z,19.30
2022-09-18T11:25:19.563Z,19.00
2022-09-18T11:27:52.388Z,19.10
2022-09-18T11:30:35.003Z,19.00
2022-09-18T11:33:17.114Z,19.00
2022-09-18T11:35:51.986Z,18.90
2022-09-18T11:38:20.424Z,18.90
2022-09-18T11:40:51.638Z,18.90
2022-09-18T11:43:33.904Z,19.00
2022-09-18T11:46:30.923Z,19.00
2022-09-18T11:49:22.413Z,19.00
2022-09-18T11:52:17.385Z,19.00
2022-09-18T11:54:52.903Z,19.00
2022-09-18T11:57:26.618Z,18.90
2022-09-18T12:00:21.244Z,18.90
2022-09-18T12:03:14.033Z,18.80
2022-09-18T12:05:53.905Z,18.70
2022-09-18T12:08:41.317Z,18.60
2022-09-18T12:11:41.373Z,18.60
2022-09-18T12:14:24.247Z,18.60
2022-09-18T12:17:00.632Z,18.60
2022-09-18T12:19:49.536Z,18.60
2022-09-18T12:22:54.970Z,18.50
2022-09-18T12:25:45.882Z,18.40
2022-09-18T12:28:20.525Z,18.40
2022-09-18T12:30:59.163Z,18.30
2022-09-18T12:33:49.020Z,18.30
2022-09-18T12:37:12.782Z,18.30
2022-09-18T12:40:17.199Z,18.20
2022-09-18T12:43:15.006Z,18.20
2022-09-18T12:46:20.103Z,18.20
2022-09-18T12:49:15.160Z,18.20
2022-09-18T12:51:46.898Z,18.10
2022-09-18T12:54:17.062Z,18.10
2022-09-18T12:57:06.013Z,18.10
2022-09-18T13:00:12.755Z,18.10
2022-09-18T13:02:51.763Z,18.00
2022-09-18T13:05:21.452Z,18.00
2022-09-18T13:08:09.370Z,17.90
2022-09-18T13:10:44.053Z,17.80
2022-09-18T13:13:29.520Z,17.70
2022-09-18T13:16:00.546Z,17.60
2022-09-18T13:19:16.697Z,17.50
2022-09-18T13:21:45.373Z,17.60
2022-09-18T13:24:16.865Z,17.50
2022-09-18T13:26:47.623Z,17.50
2022-09-18T13:29:51.869Z,17.60
2022-09-18T13:32:22.769Z,17.60
2022-09-18T13:35:02.602Z,17.50
2022-09-18T13:37:31.025Z,17.50
2022-09-18T13:40:10.610Z,17.50
2022-09-18T13:42:43.677Z,17.50
2022-09-18T13:45:28.065Z,17.40
2022-09-18T13:48:01.507Z,17.30
2022-09-18T13:50:29.668Z,17.30
2022-09-18T13:52:59.044Z,17.20
2022-09-18T13:55:27.413Z,17.10
2022-09-18T13:58:31.799Z,17.20
2022-09-18T14:01:10.073Z,17.30
2022-09-18T14:03:41.481Z,17.20
2022-09-18T14:06:45.601Z,16.70
2022-09-18T14:09:45.589Z,16.20
2022-09-18T14:12:15.099Z,16.20
2022-09-18T14:14:44.136Z,16.30
2022-09-18T14:17:15.913Z,16.40
2022-09-18T14:19:50.231Z,16.40
2022-09-18T14:22:29.837Z,16.20
2022-09-18T14:25:03.441Z,16.10
2022-09-18T14:27:42.985Z,16.00
2022-09-18T14:30:19.996Z,16.00
2022-09-18T14:32:57.395Z,16.00
2022-09-18T14:35:47.510Z,16.00
2022-09-18T14:38:32.782Z,16.00
2022-09-18T14:41:25.701Z,15.90
2022-09-18T14:43:57.049Z,15.90
2022-09-18T14:46:25.434Z,15.90
2022-09-18T14:48:53.241Z,15.80
2022-09-18T14:51:23.785Z,15.80
2022-09-18T14:53:56.966Z,15.80
2022-09-18T14:56:32.526Z,15.80
2022-09-18T14:59:03.619Z,15.90
2022-09-18T15:01:32.938Z,15.90
2022-09-18T15:04:02.164Z,15.90
2022-09-18T15:06:43.213Z,15.90
2022-09-18T15:09:14.248Z,15.90
2022-09-18T15:12:01.739Z,15.90
2022-09-18T15:14:34.980Z,15.90
2022-09-18T15:17:06.594Z,15.90
2022-09-18T15:19:34.178Z,15.90
2022-09-18T15:22:01.456Z,16.00
2022-09-18T15:24:30.830Z,16.00
2022-09-18T15:27:01.789Z,15.90
2022-09-18T15:29:38.122Z,15.90
2022-09-18T15:32:06.103Z,15.90
2022-09-18T15:34:48.393Z,15.90
2022-09-18T15:37:21.122Z,15.80
2022-09-18T15:39:59.417Z,15.70
2022-09-18T15:42:31.578Z,15.60
2022-09-18T15:45:01.469Z,15.50
2022-09-18T15:47:28.484Z,15.40
2022-09-18T15:49:56.501Z,15.30
2022-09-18T15:52:37.371Z,15.30
2022-09-18T15:55:10.622Z,15.30
2022-09-18T15:57:38.823Z,15.30
2022-09-18T16:00:11.066Z,15.40
2022-09-18T16:02:39.525Z,15.30
2022-09-18T16:05:11.221Z,15.20
2022-09-18T16:07:40.745Z,15.10
2022-09-18T16:10:36.594Z,15.00
2022-09-18T16:13:13.730Z,15.10
2022-09-18T16:15:47.400Z,15.20
2022-09-18T16:18:29.423Z,15.10
2022-09-18T16:21:05.406Z,15.00
2022-09-18T16:23:47.817Z,15.00
2022-09-18T16:26:31.888Z,15.00
2022-09-18T16:29:04.882Z,14.80
2022-09-18T16:31:35.164Z,14.70
2022-09-18T16:34:05.472Z,14.50
2022-09-18T16:36:41.951Z,14.40
2022-09-18T16:39:13.113Z,14.40
2022-09-18T16:41:41.370Z,14.30
2022-09-18T16:44:11.883Z,14.30
2022-09-18T16:46:44.481Z,14.20
2022-09-18T16:49:13.613Z,14.20
2022-09-18T16:51:41.528Z,14.10
2022-09-18T16:54:08.872Z,14.00
2022-09-18T16:56:40.557Z,14.00
2022-09-18T16:59:07.684Z,13.90
2022-09-18T17:02:00.034Z,13.90
2022-09-18T17:04:26.318Z,13.80
2022-09-18T17:06:53.497Z,13.80
2022-09-18T17:09:21.598Z,13.70
2022-09-18T17:11:48.751Z,13.70
2022-09-18T17:14:16.306Z,13.60
2022-09-18T17:16:44.890Z,13.60
2022-09-18T17:19:12.988Z,13.50
2022-09-18T17:21:41.727Z,13.50
2022-09-18T17:24:10.046Z,13.50
2022-09-18T17:26:39.120Z,13.40
2022-09-18T17:29:06.758Z,13.40
2022-09-18T17:31:34.030Z,13.30
2022-09-18T17:34:01.282Z,13.40
2022-09-18T17:36:28.617Z,13.30
2022-09-18T17:38:58.416Z,13.30
2022-09-18T17:41:27.747Z,13.30
2022-09-18T17:43:54.813Z,13.30
2022-09-18T17:46:21.979Z,13.30
2022-09-18T17:48:49.228Z,13.30
2022-09-18T17:51:18.724Z,13.40
2022-09-18T17:53:48.492Z,13.40
2022-09-18T17:56:18.601Z,13.40
2022-09-18T17:58:46.707Z,13.50
2022-09-18T18:01:19.142Z,13.40
2022-09-18T18:03:49.689Z,13.30
2022-09-18T18:06:21.658Z,13.20
2022-09-18T18:08:50.279Z,13.20
2022-09-18T18:11:19.129Z,13.10
2022-09-18T18:13:50.040Z,13.10
2022-09-18T18:16:23.966Z,13.10
2022-09-18T18:18:53.757Z,13.00
2022-09-18T18:21:21.449Z,13.00
2022-09-18T18:23:49.299Z,12.90
2022-09-18T18:26:16.644Z,12.90
2022-09-18T18:28:45.277Z,12.80
2022-09-18T18:31:14.405Z,12.90
2022-09-18T18:33:43.103Z,13.00
2022-09-18T18:36:17.473Z,12.90
2022-09-18T18:38:49.407Z,13.00
2022-09-18T18:41:18.348Z,12.90
2022-09-18T18:43:45.650Z,12.80
2022-09-18T18:46:14.375Z,12.70
2022-09-18T18:48:43.078Z,12.70
2022-09-18T18:51:13.497Z,12.60
2022-09-18T18:54:08.901Z,12.70
2022-09-18T18:56:38.785Z,12.70
2022-09-18T18:59:09.021Z,12.60
2022-09-18T19:01:36.333Z,12.60
2022-09-18T19:04:12.788Z,12.50
2022-09-18T19:06:42.333Z,12.50
2022-09-18T19:09:30.673Z,12.60
2022-09-18T19:11:57.868Z,12.60
2022-09-18T19:14:28.612Z,12.60
2022-09-18T19:16:56.227Z,12.60
2022-09-18T19:19:25.452Z,12.70
2022-09-18T19:21:53.097Z,12.80
2022-09-18T19:24:21.109Z,12.70
2022-09-18T19:26:49.247Z,12.60
2022-09-18T19:29:18.410Z,12.60
2022-09-18T19:31:46.965Z,12.60
2022-09-18T19:34:16.557Z,12.50
2022-09-18T19:36:47.280Z,12.40
2022-09-18T19:39:14.872Z,12.20
2022-09-18T19:42:18.987Z,12.00
2022-09-18T19:44:52.967Z,11.90
2022-09-18T19:47:45.922Z,11.80
2022-09-18T19:50:21.132Z,11.90
2022-09-18T19:52:51.300Z,11.90
2022-09-18T19:55:20.922Z,12.00
2022-09-18T19:57:54.734Z,12.00
2022-09-18T20:00:21.796Z,12.10
2022-09-18T20:02:49.103Z,12.10
2022-09-18T20:05:16.329Z,12.20
2022-09-18T20:07:43.505Z,12.20
2022-09-18T20:10:13.183Z,12.30
2022-09-18T20:12:42.101Z,12.20
2022-09-18T20:15:10.699Z,12.20
2022-09-18T20:17:38.652Z,12.20
2022-09-18T20:20:15.639Z,12.20
2022-09-18T20:22:43.614Z,12.20
2022-09-18T20:25:11.064Z,12.20
2022-09-18T20:27:40.268Z,12.10
2022-09-18T20:30:09.924Z,12.20
2022-09-18T20:32:37.803Z,12.10
2022-09-18T20:35:05.582Z,12.00
2022-09-18T20:37:35.759Z,12.00
2022-09-18T20:40:05.587Z,12.10
2022-09-18T20:42:33.491Z,12.20
2022-09-18T20:45:05.024Z,12.10
2022-09-18T20:47:37.270Z,12.00
2022-09-18T20:50:11.816Z,12.00
2022-09-18T20:52:43.163Z,11.90
2022-09-18T20:55:16.439Z,11.90
2022-09-18T20:57:46.569Z,11.80
2022-09-18T21:00:16.366Z,11.80
2022-09-18T21:02:49.480Z,11.50
2022-09-18T21:05:16.532Z,11.30
2022-09-18T21:07:45.773Z,11.20
2022-09-18T21:10:13.653Z,11.20
2022-09-18T21:12:40.705Z,11.20
2022-09-18T21:15:10.155Z,11.10
2022-09-18T21:17:38.572Z,11.00
2022-09-18T21:20:06.831Z,11.00
2022-09-18T21:22:33.986Z,11.10
2022-09-18T21:25:01.236Z,11.10
2022-09-18T21:27:28.279Z,11.20
2022-09-18T21:29:58.166Z,11.20
2022-09-18T21:32:26.345Z,11.20
2022-09-18T21:34:55.286Z,11.20
2022-09-18T21:37:32.257Z,11.30
2022-09-18T21:40:01.594Z,11.40
2022-09-18T21:42:32.902Z,11.40
2022-09-18T21:45:04.019Z,11.40
2022-09-18T21:47:38.802Z,11.40
2022-09-18T21:50:15.702Z,11.40
2022-09-18T21:52:47.402Z,11.40
2022-09-18T21:55:20.924Z,11.40
2022-09-18T21:57:50.718Z,11.40
2022-09-18T22:00:27.821Z,11.40
2022-09-18T22:02:55.368Z,11.40
2022-09-18T22:05:25.023Z,11.40
2022-09-18T22:07:58.414Z,11.40
2022-09-18T22:10:27.993Z,11.40
2022-09-18T22:13:04.188Z,11.10
2022-09-18T22:15:40.698Z,10.80
2022-09-18T22:18:18.133Z,10.50
2022-09-18T22:20:48.038Z,10.20
2022-09-18T22:23:18.364Z,10.10
2022-09-18T22:25:46.584Z,10.00
2022-09-18T22:28:15.444Z,10.10
2022-09-18T22:30:52.404Z,10.20
2022-09-18T22:33:19.774Z,10.10
2022-09-18T22:35:49.039Z,10.00
2022-09-18T22:38:23.496Z,10.00
2022-09-18T22:40:53.243Z,10.00
2022-09-18T22:43:29.964Z,10.00
2022-09-18T22:46:15.923Z,10.00
2022-09-18T22:48:46.645Z,10.20
2022-09-18T22:51:22.299Z,10.30
2022-09-18T22:53:57.895Z,10.50
2022-09-18T22:56:31.934Z,10.60
2022-09-18T22:59:08.567Z,10.40
2022-09-18T23:01:42.814Z,10.30
2022-09-18T23:04:12.520Z,10.20
2022-09-18T23:06:41.124Z,10.20
2022-09-18T23:09:17.299Z,10.10
2022-09-18T23:11:51.996Z,10.00
2022-09-18T23:14:27.970Z,9.90
2022-09-18T23:17:09.514Z,9.90
2022-09-18T23:19:37.766Z,9.90
2022-09-18T23:22:10.144Z,9.80
2022-09-18T23:24:39.764Z,9.80
2022-09-18T23:27:09.250Z,9.70
2022-09-18T23:29:41.984Z,9.70
2022-09-18T23:32:09.964Z,9.70
2022-09-18T23:34:39.824Z,9.60
2022-09-18T23:37:08.909Z,9.60
2022-09-18T23:39:39.380Z,9.60
2022-09-18T23:42:11.845Z,9.60
2022-09-18T23:44:48.871Z,9.60
2022-09-18T23:47:26.524Z,9.60
2022-09-18T23:49:57.074Z,9.70
2022-09-18T23:52:31.516Z,9.70
2022-09-18T23:55:03.909Z,9.80
2022-09-18T23:57:42.444Z,9.80
